Haines Airport
PAHN : rendu visible

Aérodrome :











RETROUVEZ-NOUS SUR...

 
LOGIN :

S'inscrire | Disclaimer

   EN    FR    IT 

 









Légende :    VFR   VFR Marginal   IFR   IFR Intensif   IFR Très Intensif
Visi : 
Plafond : 
>= 8 km
>= 3000ft
5 à 8 km
1000 à 3000 ft
1500m à 5 km
500 à 1000 ft
800 à 1500m
200 à 500 ft
< 800m
< 200 ft
Symboles :   Orages  Brouillard  Fortes neiges  Fortes précipitations  Vent > 20 kt






- Altitude de l'aérodrome : 15 ft
- Code IATA : HNS


PAHN - Haines

DERNIER METAR :
  • 142054Z AUTO 29010KT 5SM BR OVC022 02/01 A3005 RMK UPB17E34 SLP177 P0000 60000 T00170006 51003 TSNO VIA AUTODIAL

METARs EXPIRÉS :
  • 142036Z AUTO 29010KT 3SM BR OVC024 02/01 A3004 RMK AO2 UPB17E34 P0000 T00170006 TSNO
  • 142020Z AUTO 30008KT 1 3/4SM UP BR OVC020 02/01 A3004 RMK AO2 UPB17 P0000 T00170006 TSNO
  • 141954Z AUTO 30009KT 4SM BR BKN018 OVC023 02/01 A3004 RMK AO2 SLP175 T00170006 TSNO
  • 141937Z AUTO 30011KT 2SM BR BKN022 OVC027 02/01 A3004 RMK AO2 T00170006 TSNO
  • 141854Z AUTO 28007KT 10SM OVC022 02/01 A3004 RMK AO2 SLP173 T00170006 TSNO

TAF PAHN
Valide du 14 à 18h jusqu'au 15 à 18h UTC


141722Z 1418/1518 30008KT P6SM FEW006 OVC020
TEMPO 1418/1420 29008KT 5SM BR
FM142000 30007KT P6SM OVC020
FM142200 30007KT P6SM SCT020 BKN040 AMD LTD TO CLD VIS AND WIND



MET'MAP, la Météo Aéronautique d'un coup d'oeil ! - Copyright ORBIFLY Décembre 2007 - Disclaimer

ORBIFLY MET'MAP TEAM :

Programmation & Développement : Alexandra Zaïnal
Sur une idée originale de : Baudouin d'Aumeries
Assistance à la programmation : Marc-Olivier Méhu
Soutien technique & logistique : Manuel Goepfert

Contact : metmap@orbifly.com




SOURCES & CREDITS :

   NOAA       Earth
Advisory